sensor_id;sensor_type;location;lat;lon;timestamp;P1;durP1;ratioP1;P2;durP2;ratioP2
69280;SDS011;56392;51.082;17.080;2023-10-08T00:04:25;5.65;;;0.82;;
69280;SDS011;56392;51.082;17.080;2023-10-08T00:09:50;3.47;;;0.80;;
69280;SDS011;56392;51.082;17.080;2023-10-08T00:15:15;5.03;;;0.60;;
69280;SDS011;56392;51.082;17.080;2023-10-08T00:20:39;3.03;;;0.57;;
69280;SDS011;56392;51.082;17.080;2023-10-08T00:26:07;1.90;;;0.50;;
69280;SDS011;56392;51.082;17.080;2023-10-08T00:31:32;3.63;;;0.50;;
69280;SDS011;56392;51.082;17.080;2023-10-08T00:37:01;3.13;;;0.60;;
69280;SDS011;56392;51.082;17.080;2023-10-08T00:42:30;2.80;;;0.45;;
69280;SDS011;56392;51.082;17.080;2023-10-08T00:47:55;2.67;;;0.50;;
69280;SDS011;56392;51.082;17.080;2023-10-08T00:53:20;2.95;;;0.50;;
69280;SDS011;56392;51.082;17.080;2023-10-08T00:58:45;3.30;;;0.40;;
69280;SDS011;56392;51.082;17.080;2023-10-08T01:04:19;2.80;;;0.50;;
69280;SDS011;56392;51.082;17.080;2023-10-08T01:09:47;3.93;;;0.70;;
69280;SDS011;56392;51.082;17.080;2023-10-08T01:15:12;3.88;;;0.60;;
69280;SDS011;56392;51.082;17.080;2023-10-08T01:20:41;3.08;;;0.68;;
69280;SDS011;56392;51.082;17.080;2023-10-08T01:26:19;2.83;;;0.60;;
69280;SDS011;56392;51.082;17.080;2023-10-08T01:31:44;4.82;;;0.73;;
69280;SDS011;56392;51.082;17.080;2023-10-08T01:37:07;4.07;;;0.95;;
69280;SDS011;56392;51.082;17.080;2023-10-08T01:42:35;4.63;;;0.67;;
69280;SDS011;56392;51.082;17.080;2023-10-08T01:48:00;3.83;;;0.60;;
69280;SDS011;56392;51.082;17.080;2023-10-08T01:53:24;3.63;;;0.70;;
69280;SDS011;56392;51.082;17.080;2023-10-08T01:58:49;5.23;;;0.73;;
69280;SDS011;56392;51.082;17.080;2023-10-08T02:04:13;4.93;;;0.70;;
69280;SDS011;56392;51.082;17.080;2023-10-08T02:09:37;4.15;;;0.70;;
69280;SDS011;56392;51.082;17.080;2023-10-08T02:15:02;5.88;;;0.90;;
69280;SDS011;56392;51.082;17.080;2023-10-08T02:20:25;4.43;;;0.90;;
69280;SDS011;56392;51.082;17.080;2023-10-08T02:25:49;6.82;;;1.00;;
69280;SDS011;56392;51.082;17.080;2023-10-08T02:31:15;6.10;;;1.00;;
69280;SDS011;56392;51.082;17.080;2023-10-08T02:36:40;5.03;;;0.90;;
69280;SDS011;56392;51.082;17.080;2023-10-08T02:42:03;4.93;;;0.68;;
69280;SDS011;56392;51.082;17.080;2023-10-08T02:47:33;6.35;;;1.02;;
69280;SDS011;56392;51.082;17.080;2023-10-08T02:52:56;6.00;;;0.60;;
69280;SDS011;56392;51.082;17.080;2023-10-08T02:58:25;6.03;;;0.77;;
69280;SDS011;56392;51.082;17.080;2023-10-08T03:03:51;3.90;;;0.68;;
69280;SDS011;56392;51.082;17.080;2023-10-08T03:09:23;4.30;;;0.60;;
69280;SDS011;56392;51.082;17.080;2023-10-08T03:14:48;6.47;;;1.10;;
69280;SDS011;56392;51.082;17.080;2023-10-08T03:20:24;4.38;;;0.82;;
69280;SDS011;56392;51.082;17.080;2023-10-08T03:25:51;4.75;;;0.82;;
69280;SDS011;56392;51.082;17.080;2023-10-08T03:31:20;6.10;;;0.90;;
69280;SDS011;56392;51.082;17.080;2023-10-08T03:36:54;5.22;;;0.70;;
69280;SDS011;56392;51.082;17.080;2023-10-08T03:42:27;3.90;;;0.70;;
69280;SDS011;56392;51.082;17.080;2023-10-08T03:47:56;6.67;;;0.90;;
69280;SDS011;56392;51.082;17.080;2023-10-08T03:53:28;4.87;;;0.70;;
69280;SDS011;56392;51.082;17.080;2023-10-08T03:58:55;4.70;;;0.80;;
69280;SDS011;56392;51.082;17.080;2023-10-08T04:04:22;6.10;;;0.90;;
69280;SDS011;56392;51.082;17.080;2023-10-08T04:09:53;7.50;;;0.70;;
69280;SDS011;56392;51.082;17.080;2023-10-08T04:15:38;4.38;;;1.00;;
69280;SDS011;56392;51.082;17.080;2023-10-08T04:21:02;5.65;;;0.70;;
69280;SDS011;56392;51.082;17.080;2023-10-08T04:26:35;4.30;;;0.60;;
69280;SDS011;56392;51.082;17.080;2023-10-08T04:32:00;3.70;;;0.70;;
69280;SDS011;56392;51.082;17.080;2023-10-08T04:37:29;2.45;;;0.50;;
69280;SDS011;56392;51.082;17.080;2023-10-08T04:42:56;7.90;;;0.90;;
69280;SDS011;56392;51.082;17.080;2023-10-08T04:48:23;5.07;;;0.90;;
69280;SDS011;56392;51.082;17.080;2023-10-08T04:53:51;6.32;;;1.10;;
69280;SDS011;56392;51.082;17.080;2023-10-08T04:59:17;5.80;;;1.00;;
69280;SDS011;56392;51.082;17.080;2023-10-08T05:04:43;6.33;;;1.00;;
69280;SDS011;56392;51.082;17.080;2023-10-08T05:10:20;7.50;;;1.35;;
69280;SDS011;56392;51.082;17.080;2023-10-08T05:16:24;5.68;;;1.10;;
69280;SDS011;56392;51.082;17.080;2023-10-08T05:22:04;5.80;;;1.27;;
69280;SDS011;56392;51.082;17.080;2023-10-08T05:27:52;6.03;;;1.20;;
69280;SDS011;56392;51.082;17.080;2023-10-08T05:33:32;9.10;;;1.52;;
69280;SDS011;56392;51.082;17.080;2023-10-08T05:39:21;8.73;;;1.57;;
69280;SDS011;56392;51.082;17.080;2023-10-08T05:44:51;7.53;;;1.63;;
69280;SDS011;56392;51.082;17.080;2023-10-08T05:50:36;9.32;;;1.85;;
69280;SDS011;56392;51.082;17.080;2023-10-08T05:56:04;7.80;;;1.85;;
69280;SDS011;56392;51.082;17.080;2023-10-08T06:01:38;8.80;;;1.77;;
69280;SDS011;56392;51.082;17.080;2023-10-08T06:07:04;9.43;;;2.13;;
69280;SDS011;56392;51.082;17.080;2023-10-08T06:12:38;10.10;;;2.70;;
69280;SDS011;56392;51.082;17.080;2023-10-08T06:18:11;11.27;;;2.87;;
69280;SDS011;56392;51.082;17.080;2023-10-08T06:23:39;8.95;;;2.35;;
69280;SDS011;56392;51.082;17.080;2023-10-08T06:29:03;10.35;;;2.80;;
69280;SDS011;56392;51.082;17.080;2023-10-08T06:34:39;11.93;;;3.03;;
69280;SDS011;56392;51.082;17.080;2023-10-08T06:40:06;11.83;;;3.30;;
69280;SDS011;56392;51.082;17.080;2023-10-08T06:45:51;8.10;;;3.13;;
69280;SDS011;56392;51.082;17.080;2023-10-08T06:51:15;12.13;;;3.20;;
69280;SDS011;56392;51.082;17.080;2023-10-08T06:56:41;9.03;;;2.90;;
69280;SDS011;56392;51.082;17.080;2023-10-08T07:02:07;11.25;;;3.42;;
69280;SDS011;56392;51.082;17.080;2023-10-08T07:07:31;11.15;;;3.30;;
69280;SDS011;56392;51.082;17.080;2023-10-08T07:13:02;8.57;;;2.80;;
69280;SDS011;56392;51.082;17.080;2023-10-08T07:18:25;10.15;;;2.80;;
69280;SDS011;56392;51.082;17.080;2023-10-08T07:23:48;8.05;;;2.60;;
69280;SDS011;56392;51.082;17.080;2023-10-08T07:29:20;8.00;;;2.87;;
69280;SDS011;56392;51.082;17.080;2023-10-08T07:34:43;7.13;;;2.20;;
69280;SDS011;56392;51.082;17.080;2023-10-08T07:40:07;8.38;;;2.25;;
69280;SDS011;56392;51.082;17.080;2023-10-08T07:45:35;7.22;;;1.80;;
69280;SDS011;56392;51.082;17.080;2023-10-08T07:50:58;8.77;;;1.60;;
69280;SDS011;56392;51.082;17.080;2023-10-08T07:56:22;6.82;;;1.67;;
69280;SDS011;56392;51.082;17.080;2023-10-08T08:01:47;5.90;;;1.42;;
69280;SDS011;56392;51.082;17.080;2023-10-08T08:07:10;9.00;;;1.80;;
69280;SDS011;56392;51.082;17.080;2023-10-08T08:12:37;7.78;;;1.70;;
69280;SDS011;56392;51.082;17.080;2023-10-08T08:18:02;7.20;;;1.60;;
69280;SDS011;56392;51.082;17.080;2023-10-08T08:23:27;5.37;;;1.30;;
69280;SDS011;56392;51.082;17.080;2023-10-08T08:28:55;7.80;;;1.13;;
69280;SDS011;56392;51.082;17.080;2023-10-08T08:34:23;5.05;;;1.13;;
69280;SDS011;56392;51.082;17.080;2023-10-08T08:39:46;4.18;;;0.80;;
69280;SDS011;56392;51.082;17.080;2023-10-08T08:45:09;3.63;;;0.80;;
69280;SDS011;56392;51.082;17.080;2023-10-08T08:50:36;3.72;;;0.90;;
69280;SDS011;56392;51.082;17.080;2023-10-08T08:56:01;4.07;;;0.75;;
69280;SDS011;56392;51.082;17.080;2023-10-08T09:01:25;4.10;;;0.80;;
69280;SDS011;56392;51.082;17.080;2023-10-08T09:06:50;6.30;;;1.00;;
69280;SDS011;56392;51.082;17.080;2023-10-08T09:12:16;5.15;;;1.00;;
69280;SDS011;56392;51.082;17.080;2023-10-08T09:17:39;3.87;;;0.80;;
69280;SDS011;56392;51.082;17.080;2023-10-08T09:23:07;4.73;;;1.13;;
69280;SDS011;56392;51.082;17.080;2023-10-08T09:28:36;5.30;;;1.15;;
69280;SDS011;56392;51.082;17.080;2023-10-08T09:34:03;4.13;;;0.65;;
69280;SDS011;56392;51.082;17.080;2023-10-08T09:39:28;4.30;;;0.70;;
69280;SDS011;56392;51.082;17.080;2023-10-08T09:44:55;3.72;;;0.70;;
69280;SDS011;56392;51.082;17.080;2023-10-08T09:50:19;4.28;;;0.60;;
69280;SDS011;56392;51.082;17.080;2023-10-08T09:55:53;3.93;;;0.70;;
69280;SDS011;56392;51.082;17.080;2023-10-08T10:01:17;3.83;;;0.65;;
69280;SDS011;56392;51.082;17.080;2023-10-08T10:06:44;3.28;;;0.50;;
69280;SDS011;56392;51.082;17.080;2023-10-08T10:12:09;4.23;;;1.07;;
69280;SDS011;56392;51.082;17.080;2023-10-08T10:17:34;2.87;;;0.50;;
69280;SDS011;56392;51.082;17.080;2023-10-08T10:22:58;3.55;;;0.60;;
69280;SDS011;56392;51.082;17.080;2023-10-08T10:28:23;2.70;;;0.60;;
69280;SDS011;56392;51.082;17.080;2023-10-08T10:33:46;4.13;;;0.60;;
69280;SDS011;56392;51.082;17.080;2023-10-08T10:39:12;3.20;;;0.50;;
69280;SDS011;56392;51.082;17.080;2023-10-08T10:44:39;2.60;;;0.50;;
69280;SDS011;56392;51.082;17.080;2023-10-08T10:50:03;3.97;;;0.60;;
69280;SDS011;56392;51.082;17.080;2023-10-08T10:55:47;3.08;;;0.75;;
69280;SDS011;56392;51.082;17.080;2023-10-08T11:01:24;3.78;;;0.93;;
69280;SDS011;56392;51.082;17.080;2023-10-08T11:06:50;4.63;;;0.60;;
69280;SDS011;56392;51.082;17.080;2023-10-08T11:12:18;1.87;;;0.50;;
69280;SDS011;56392;51.082;17.080;2023-10-08T11:17:46;2.58;;;0.50;;
69280;SDS011;56392;51.082;17.080;2023-10-08T11:23:10;3.83;;;0.70;;
69280;SDS011;56392;51.082;17.080;2023-10-08T11:28:43;2.77;;;0.60;;
69280;SDS011;56392;51.082;17.080;2023-10-08T11:34:10;4.30;;;0.70;;
69280;SDS011;56392;51.082;17.080;2023-10-08T11:39:38;4.07;;;0.65;;
69280;SDS011;56392;51.082;17.080;2023-10-08T11:45:07;4.07;;;0.50;;
69280;SDS011;56392;51.082;17.080;2023-10-08T11:50:49;2.97;;;0.60;;
69280;SDS011;56392;51.082;17.080;2023-10-08T11:56:12;4.25;;;0.70;;
69280;SDS011;56392;51.082;17.080;2023-10-08T12:01:36;3.23;;;0.50;;
69280;SDS011;56392;51.082;17.080;2023-10-08T12:07:04;2.50;;;0.60;;
69280;SDS011;56392;51.082;17.080;2023-10-08T12:12:29;2.45;;;0.50;;
69280;SDS011;56392;51.082;17.080;2023-10-08T12:17:53;2.95;;;0.65;;
69280;SDS011;56392;51.082;17.080;2023-10-08T12:23:34;2.70;;;0.57;;
69280;SDS011;56392;51.082;17.080;2023-10-08T12:28:59;3.45;;;0.70;;
69280;SDS011;56392;51.082;17.080;2023-10-08T12:34:22;3.45;;;0.63;;
69280;SDS011;56392;51.082;17.080;2023-10-08T12:39:46;4.17;;;0.67;;
69280;SDS011;56392;51.082;17.080;2023-10-08T12:45:21;3.05;;;0.80;;
69280;SDS011;56392;51.082;17.080;2023-10-08T12:50:44;2.38;;;0.60;;
69280;SDS011;56392;51.082;17.080;2023-10-08T12:56:15;3.37;;;0.50;;
69280;SDS011;56392;51.082;17.080;2023-10-08T13:01:38;3.10;;;0.53;;
69280;SDS011;56392;51.082;17.080;2023-10-08T13:07:05;3.50;;;0.70;;
69280;SDS011;56392;51.082;17.080;2023-10-08T13:12:30;2.65;;;0.60;;
69280;SDS011;56392;51.082;17.080;2023-10-08T13:17:53;3.40;;;0.70;;
69280;SDS011;56392;51.082;17.080;2023-10-08T13:23:18;3.42;;;0.65;;
69280;SDS011;56392;51.082;17.080;2023-10-08T13:28:46;3.05;;;0.68;;
69280;SDS011;56392;51.082;17.080;2023-10-08T13:34:09;3.97;;;0.70;;
69280;SDS011;56392;51.082;17.080;2023-10-08T13:39:34;3.67;;;0.63;;
69280;SDS011;56392;51.082;17.080;2023-10-08T13:44:59;2.40;;;0.43;;
69280;SDS011;56392;51.082;17.080;2023-10-08T13:50:29;3.57;;;0.70;;
69280;SDS011;56392;51.082;17.080;2023-10-08T13:55:55;2.43;;;0.60;;
69280;SDS011;56392;51.082;17.080;2023-10-08T14:01:21;3.63;;;0.60;;
69280;SDS011;56392;51.082;17.080;2023-10-08T14:06:47;2.53;;;0.52;;
69280;SDS011;56392;51.082;17.080;2023-10-08T14:12:13;5.50;;;0.70;;
69280;SDS011;56392;51.082;17.080;2023-10-08T14:17:38;3.70;;;0.63;;
69280;SDS011;56392;51.082;17.080;2023-10-08T14:23:04;1.95;;;0.50;;
69280;SDS011;56392;51.082;17.080;2023-10-08T14:28:28;2.47;;;0.47;;
69280;SDS011;56392;51.082;17.080;2023-10-08T14:34:03;4.43;;;0.60;;
69280;SDS011;56392;51.082;17.080;2023-10-08T14:39:40;3.47;;;0.90;;
69280;SDS011;56392;51.082;17.080;2023-10-08T14:45:21;3.27;;;0.90;;
69280;SDS011;56392;51.082;17.080;2023-10-08T14:50:48;2.67;;;0.60;;
69280;SDS011;56392;51.082;17.080;2023-10-08T14:56:12;2.33;;;0.60;;
69280;SDS011;56392;51.082;17.080;2023-10-08T15:01:37;2.45;;;0.50;;
69280;SDS011;56392;51.082;17.080;2023-10-08T15:07:02;5.37;;;0.70;;
69280;SDS011;56392;51.082;17.080;2023-10-08T15:12:25;3.33;;;0.50;;
69280;SDS011;56392;51.082;17.080;2023-10-08T15:17:48;2.92;;;0.70;;
69280;SDS011;56392;51.082;17.080;2023-10-08T15:23:14;3.13;;;0.70;;
69280;SDS011;56392;51.082;17.080;2023-10-08T15:28:38;2.80;;;0.70;;
69280;SDS011;56392;51.082;17.080;2023-10-08T15:34:01;3.88;;;0.60;;
69280;SDS011;56392;51.082;17.080;2023-10-08T15:39:28;4.57;;;0.70;;
69280;SDS011;56392;51.082;17.080;2023-10-08T15:44:54;4.53;;;1.03;;
69280;SDS011;56392;51.082;17.080;2023-10-08T15:50:20;2.85;;;0.60;;
69280;SDS011;56392;51.082;17.080;2023-10-08T15:55:47;2.88;;;0.80;;
69280;SDS011;56392;51.082;17.080;2023-10-08T16:01:11;3.70;;;0.80;;
69280;SDS011;56392;51.082;17.080;2023-10-08T16:06:34;3.30;;;0.63;;
69280;SDS011;56392;51.082;17.080;2023-10-08T16:11:59;4.85;;;0.80;;
69280;SDS011;56392;51.082;17.080;2023-10-08T16:17:22;5.73;;;0.67;;
69280;SDS011;56392;51.082;17.080;2023-10-08T16:22:49;4.05;;;0.82;;
69280;SDS011;56392;51.082;17.080;2023-10-08T16:28:15;2.60;;;0.60;;
69280;SDS011;56392;51.082;17.080;2023-10-08T16:33:40;4.53;;;0.90;;
69280;SDS011;56392;51.082;17.080;2023-10-08T16:39:03;3.97;;;0.80;;
69280;SDS011;56392;51.082;17.080;2023-10-08T16:44:28;4.10;;;0.90;;
69280;SDS011;56392;51.082;17.080;2023-10-08T16:49:51;5.45;;;1.10;;
69280;SDS011;56392;51.082;17.080;2023-10-08T16:55:14;5.13;;;0.90;;
69280;SDS011;56392;51.082;17.080;2023-10-08T17:00:41;3.40;;;0.70;;
69280;SDS011;56392;51.082;17.080;2023-10-08T17:06:05;5.32;;;0.90;;
69280;SDS011;56392;51.082;17.080;2023-10-08T17:11:30;4.13;;;0.80;;
69280;SDS011;56392;51.082;17.080;2023-10-08T17:16:57;4.32;;;0.98;;
69280;SDS011;56392;51.082;17.080;2023-10-08T17:22:23;3.55;;;0.88;;
69280;SDS011;56392;51.082;17.080;2023-10-08T17:27:49;3.20;;;0.70;;
69280;SDS011;56392;51.082;17.080;2023-10-08T17:33:14;4.83;;;1.00;;
69280;SDS011;56392;51.082;17.080;2023-10-08T17:38:37;8.35;;;0.95;;
69280;SDS011;56392;51.082;17.080;2023-10-08T17:44:02;4.85;;;0.90;;
69280;SDS011;56392;51.082;17.080;2023-10-08T17:49:28;4.00;;;1.00;;
69280;SDS011;56392;51.082;17.080;2023-10-08T17:54:57;5.43;;;1.20;;
69280;SDS011;56392;51.082;17.080;2023-10-08T18:00:21;5.28;;;1.08;;
69280;SDS011;56392;51.082;17.080;2023-10-08T18:05:49;9.00;;;1.50;;
69280;SDS011;56392;51.082;17.080;2023-10-08T18:11:15;5.97;;;1.30;;
69280;SDS011;56392;51.082;17.080;2023-10-08T18:16:40;4.63;;;0.95;;
69280;SDS011;56392;51.082;17.080;2023-10-08T18:22:09;5.60;;;1.10;;
69280;SDS011;56392;51.082;17.080;2023-10-08T18:27:32;6.63;;;1.30;;
69280;SDS011;56392;51.082;17.080;2023-10-08T18:32:56;6.47;;;1.38;;
69280;SDS011;56392;51.082;17.080;2023-10-08T18:38:20;8.35;;;2.05;;
69280;SDS011;56392;51.082;17.080;2023-10-08T18:43:44;8.20;;;2.40;;
69280;SDS011;56392;51.082;17.080;2023-10-08T18:49:10;8.38;;;3.13;;
69280;SDS011;56392;51.082;17.080;2023-10-08T18:54:39;7.00;;;2.30;;
69280;SDS011;56392;51.082;17.080;2023-10-08T19:00:05;8.80;;;2.70;;
69280;SDS011;56392;51.082;17.080;2023-10-08T19:05:31;9.30;;;2.90;;
69280;SDS011;56392;51.082;17.080;2023-10-08T19:10:56;9.05;;;2.55;;
69280;SDS011;56392;51.082;17.080;2023-10-08T19:16:19;11.77;;;2.83;;
69280;SDS011;56392;51.082;17.080;2023-10-08T19:21:46;8.10;;;2.50;;
69280;SDS011;56392;51.082;17.080;2023-10-08T19:27:11;9.20;;;2.78;;
69280;SDS011;56392;51.082;17.080;2023-10-08T19:32:35;8.52;;;2.60;;
69280;SDS011;56392;51.082;17.080;2023-10-08T19:37:59;9.17;;;2.60;;
69280;SDS011;56392;51.082;17.080;2023-10-08T19:43:26;9.30;;;2.10;;
69280;SDS011;56392;51.082;17.080;2023-10-08T19:48:50;7.25;;;2.13;;
69280;SDS011;56392;51.082;17.080;2023-10-08T19:54:15;8.60;;;2.50;;
69280;SDS011;56392;51.082;17.080;2023-10-08T19:59:43;7.32;;;2.00;;
69280;SDS011;56392;51.082;17.080;2023-10-08T20:05:07;6.70;;;1.88;;
69280;SDS011;56392;51.082;17.080;2023-10-08T20:10:37;8.27;;;2.60;;
69280;SDS011;56392;51.082;17.080;2023-10-08T20:16:03;10.53;;;2.43;;
69280;SDS011;56392;51.082;17.080;2023-10-08T20:21:27;10.88;;;2.95;;
69280;SDS011;56392;51.082;17.080;2023-10-08T20:26:52;12.25;;;3.13;;
69280;SDS011;56392;51.082;17.080;2023-10-08T20:32:17;12.37;;;3.33;;
69280;SDS011;56392;51.082;17.080;2023-10-08T20:37:41;13.75;;;3.97;;
69280;SDS011;56392;51.082;17.080;2023-10-08T20:43:05;11.70;;;3.65;;
69280;SDS011;56392;51.082;17.080;2023-10-08T20:48:29;11.03;;;3.57;;
69280;SDS011;56392;51.082;17.080;2023-10-08T20:53:53;10.77;;;3.90;;
69280;SDS011;56392;51.082;17.080;2023-10-08T20:59:18;10.77;;;3.78;;
69280;SDS011;56392;51.082;17.080;2023-10-08T21:04:43;12.20;;;3.70;;
69280;SDS011;56392;51.082;17.080;2023-10-08T21:10:07;10.97;;;3.47;;
69280;SDS011;56392;51.082;17.080;2023-10-08T21:15:33;9.65;;;3.33;;
69280;SDS011;56392;51.082;17.080;2023-10-08T21:20:59;9.90;;;3.45;;
69280;SDS011;56392;51.082;17.080;2023-10-08T21:26:24;10.60;;;3.60;;
69280;SDS011;56392;51.082;17.080;2023-10-08T21:31:47;12.00;;;3.80;;
69280;SDS011;56392;51.082;17.080;2023-10-08T21:37:12;12.30;;;3.70;;
69280;SDS011;56392;51.082;17.080;2023-10-08T21:42:36;10.50;;;3.50;;
69280;SDS011;56392;51.082;17.080;2023-10-08T21:48:00;10.48;;;3.47;;
69280;SDS011;56392;51.082;17.080;2023-10-08T21:53:24;11.82;;;3.67;;
69280;SDS011;56392;51.082;17.080;2023-10-08T21:58:48;11.03;;;3.60;;
69280;SDS011;56392;51.082;17.080;2023-10-08T22:04:11;13.03;;;3.70;;
69280;SDS011;56392;51.082;17.080;2023-10-08T22:09:36;10.95;;;3.53;;
69280;SDS011;56392;51.082;17.080;2023-10-08T22:14:59;12.82;;;4.03;;
69280;SDS011;56392;51.082;17.080;2023-10-08T22:20:27;13.23;;;3.90;;
69280;SDS011;56392;51.082;17.080;2023-10-08T22:26:06;8.77;;;3.25;;
69280;SDS011;56392;51.082;17.080;2023-10-08T22:31:32;11.60;;;3.78;;
69280;SDS011;56392;51.082;17.080;2023-10-08T22:36:55;9.17;;;3.70;;
69280;SDS011;56392;51.082;17.080;2023-10-08T22:42:30;11.15;;;3.35;;
69280;SDS011;56392;51.082;17.080;2023-10-08T22:47:53;12.10;;;3.90;;
69280;SDS011;56392;51.082;17.080;2023-10-08T22:53:19;10.33;;;3.93;;
69280;SDS011;56392;51.082;17.080;2023-10-08T22:58:43;10.33;;;3.60;;
69280;SDS011;56392;51.082;17.080;2023-10-08T23:04:07;10.23;;;3.55;;
69280;SDS011;56392;51.082;17.080;2023-10-08T23:09:32;12.57;;;3.28;;
69280;SDS011;56392;51.082;17.080;2023-10-08T23:14:57;10.57;;;3.93;;
69280;SDS011;56392;51.082;17.080;2023-10-08T23:20:20;12.48;;;4.65;;
69280;SDS011;56392;51.082;17.080;2023-10-08T23:25:44;13.88;;;5.15;;
69280;SDS011;56392;51.082;17.080;2023-10-08T23:31:09;13.27;;;4.73;;
69280;SDS011;56392;51.082;17.080;2023-10-08T23:36:32;10.55;;;3.90;;
69280;SDS011;56392;51.082;17.080;2023-10-08T23:42:00;14.40;;;4.15;;
69280;SDS011;56392;51.082;17.080;2023-10-08T23:47:45;10.83;;;3.93;;
69280;SDS011;56392;51.082;17.080;2023-10-08T23:53:08;10.13;;;3.50;;
69280;SDS011;56392;51.082;17.080;2023-10-08T23:58:32;9.13;;;3.22;;
